Time;durP1;ratioP1;P1;durP2;ratioP2;P2;SDS_P1;SDS_P2;PMS_P1;PMS_P2;Temp;Humidity;BMP_temperature;BMP_pressure;BME280_temperature;BME280_humidity;BME280_pressure;Samples;Min_cycle;Max_cycle;Signal;HPM_P1;HPM_P2
2022/10/12 00:00:51;;;;;;;29.77;19.67;;;;;;;14.82;100.00;98865.47;5034856;28;20582;-56
2022/10/12 00:03:18;;;;;;;29.73;19.58;;;;;;;14.90;100.00;98860.47;5035012;28;20574;-56
2022/10/12 00:05:43;;;;;;;25.15;18.85;;;;;;;14.98;100.00;98863.31;5034942;28;20235;-57
2022/10/12 00:08:09;;;;;;;26.67;19.40;;;;;;;15.02;100.00;98859.50;5034577;28;20182;-57
2022/10/12 00:10:42;;;;;;;27.38;18.83;;;;;;;15.04;100.00;98868.03;5034845;28;20170;-56
2022/10/12 00:13:08;;;;;;;27.30;18.63;;;;;;;15.06;100.00;98861.75;5034977;28;20200;-56
2022/10/12 00:15:38;;;;;;;24.38;18.55;;;;;;;15.06;100.00;98866.13;5034713;28;20186;-57
2022/10/12 00:18:04;;;;;;;25.40;17.73;;;;;;;14.92;100.00;98856.78;5034719;28;20172;-56
2022/10/12 00:20:30;;;;;;;22.75;16.30;;;;;;;14.76;100.00;98863.34;5034640;28;20175;-56
2022/10/12 00:22:55;;;;;;;23.67;16.80;;;;;;;14.66;100.00;98863.22;5000248;28;20658;-56
2022/10/12 00:25:21;;;;;;;28.33;17.15;;;;;;;14.65;100.00;98866.75;5034509;28;20640;-56
2022/10/12 00:27:46;;;;;;;26.77;17.17;;;;;;;14.70;100.00;98867.22;5034215;28;20204;-56
2022/10/12 00:30:12;;;;;;;21.05;16.23;;;;;;;14.61;100.00;98864.50;5034171;28;20599;-56
2022/10/12 00:32:37;;;;;;;28.17;16.58;;;;;;;14.42;100.00;98865.13;5034363;28;20174;-57
2022/10/12 00:35:03;;;;;;;23.08;16.08;;;;;;;14.31;100.00;98866.88;5014947;28;20248;-57
2022/10/12 00:37:28;;;;;;;24.17;17.63;;;;;;;14.17;100.00;98870.50;5034113;28;20438;-56
2022/10/12 00:39:54;;;;;;;24.35;18.17;;;;;;;14.08;100.00;98871.19;5034607;28;20194;-57
2022/10/12 00:42:19;;;;;;;22.05;16.75;;;;;;;14.18;100.00;98873.94;5033964;28;20166;-56
2022/10/12 00:44:47;;;;;;;26.48;16.77;;;;;;;14.27;100.00;98868.03;5033953;28;20250;-57
2022/10/12 00:47:17;;;;;;;21.83;15.60;;;;;;;14.49;100.00;98874.13;5033905;28;20186;-56
2022/10/12 00:49:46;;;;;;;20.33;15.07;;;;;;;14.47;100.00;98877.78;5034060;28;20261;-56
2022/10/12 00:52:16;;;;;;;19.38;15.00;;;;;;;14.50;100.00;98874.94;5033848;28;20538;-56
2022/10/12 00:54:45;;;;;;;21.35;13.90;;;;;;;14.33;100.00;98875.38;5015986;28;20731;-58
2022/10/12 00:57:13;;;;;;;20.15;14.32;;;;;;;14.33;100.00;98865.81;5033707;28;20206;-57
2022/10/12 00:59:45;;;;;;;17.38;13.52;;;;;;;14.41;100.00;98870.44;5033594;28;20171;-57
2022/10/12 01:02:12;;;;;;;17.20;13.23;;;;;;;14.48;100.00;98874.22;5033923;28;20185;-55
2022/10/12 01:04:38;;;;;;;18.63;13.93;;;;;;;14.61;100.00;98885.34;5033586;28;20682;-55
2022/10/12 01:07:03;;;;;;;20.58;13.00;;;;;;;14.60;100.00;98879.31;5033470;28;20178;-57
2022/10/12 01:09:29;;;;;;;15.55;12.93;;;;;;;14.74;100.00;98873.88;5033696;28;20170;-57
2022/10/12 01:11:57;;;;;;;15.77;12.68;;;;;;;14.87;100.00;98881.56;5033582;28;20185;-57
2022/10/12 01:14:22;;;;;;;20.83;13.65;;;;;;;14.85;100.00;98880.84;5033244;28;20193;-57
2022/10/12 01:16:53;;;;;;;15.80;11.90;;;;;;;14.70;100.00;98869.03;5033272;28;20171;-55
2022/10/12 01:19:37;;;;;;;16.00;11.85;;;;;;;14.89;100.00;98875.28;5033579;28;20166;-56
2022/10/12 01:22:06;;;;;;;13.32;9.90;;;;;;;14.57;100.00;98876.94;5015544;28;20186;-56
2022/10/12 01:24:40;;;;;;;11.25;8.65;;;;;;;14.57;100.00;98878.75;5033139;28;20174;-56
2022/10/12 01:27:30;;;;;;;16.10;10.45;;;;;;;14.60;100.00;98868.91;5033741;28;20175;-57
2022/10/12 01:30:07;;;;;;;16.00;9.82;;;;;;;14.74;100.00;98866.06;5033579;28;20253;-57
2022/10/12 01:32:48;;;;;;;10.15;8.73;;;;;;;14.82;100.00;98868.88;5033295;28;20196;-57
2022/10/12 01:35:27;;;;;;;14.05;9.38;;;;;;;15.00;100.00;98866.63;5032992;28;20213;-56
2022/10/12 01:38:21;;;;;;;12.82;9.50;;;;;;;14.81;100.00;98859.41;5033705;28;20174;-57
2022/10/12 01:41:06;;;;;;;9.57;7.97;;;;;;;14.67;100.00;98871.84;5033141;28;20158;-56
2022/10/12 01:43:38;;;;;;;13.88;8.20;;;;;;;14.63;100.00;98873.06;5032830;28;20581;-56
2022/10/12 01:46:15;;;;;;;8.93;7.50;;;;;;;14.46;100.00;98876.94;5032470;28;20249;-57
2022/10/12 01:48:44;;;;;;;9.30;7.22;;;;;;;14.53;100.00;98878.13;5032688;28;20181;-57
2022/10/12 01:51:15;;;;;;;8.40;7.55;;;;;;;14.59;100.00;98880.25;5032648;28;20648;-56
2022/10/12 01:54:15;;;;;;;7.85;7.05;;;;;;;14.74;100.00;98883.44;5032869;28;20189;-56
2022/10/12 01:56:54;;;;;;;7.63;6.15;;;;;;;14.54;100.00;98885.00;4990669;28;20669;-57
2022/10/12 01:59:49;;;;;;;7.13;6.18;;;;;;;14.53;100.00;98879.91;5033012;28;20167;-56
2022/10/12 02:02:22;;;;;;;8.27;6.68;;;;;;;14.61;100.00;98886.19;5032169;28;20255;-56
2022/10/12 02:04:55;;;;;;;8.70;6.32;;;;;;;14.53;100.00;98882.53;5032682;28;20162;-56
2022/10/12 02:07:56;;;;;;;9.60;7.57;;;;;;;14.67;100.00;98877.06;5032451;28;20171;-57
2022/10/12 02:10:34;;;;;;;7.03;6.35;;;;;;;14.48;100.00;98884.63;4952675;29;20169;-56
2022/10/12 02:13:04;;;;;;;8.38;7.47;;;;;;;14.36;100.00;98886.38;5022731;28;20210;-56
2022/10/12 02:15:32;;;;;;;9.73;7.10;;;;;;;14.40;100.00;98874.81;5032543;28;20253;-56
2022/10/12 02:17:58;;;;;;;10.65;7.20;;;;;;;14.31;100.00;98885.09;5032701;28;20593;-56
2022/10/12 02:20:25;;;;;;;9.85;7.38;;;;;;;14.17;100.00;98880.09;5032173;28;20293;-56
2022/10/12 02:22:52;;;;;;;9.18;6.28;;;;;;;14.05;100.00;98879.22;5032463;28;20174;-56
2022/10/12 02:25:21;;;;;;;9.95;6.68;;;;;;;14.21;100.00;98879.75;5032398;28;20182;-56
2022/10/12 02:27:54;;;;;;;8.80;6.15;;;;;;;14.40;100.00;98879.19;5032340;28;20265;-56
2022/10/12 02:30:20;;;;;;;10.15;6.60;;;;;;;14.58;100.00;98889.00;5032343;28;20618;-56
2022/10/12 02:32:51;;;;;;;7.10;5.63;;;;;;;14.64;100.00;98890.34;5032048;28;20256;-56
2022/10/12 02:35:21;;;;;;;7.22;5.47;;;;;;;14.56;100.00;98888.31;5031919;28;20252;-56
2022/10/12 02:37:52;;;;;;;6.68;5.78;;;;;;;14.55;100.00;98891.88;5032562;28;20241;-56
2022/10/12 02:40:30;;;;;;;9.25;7.25;;;;;;;14.56;100.00;98885.72;5031931;28;20150;-56
2022/10/12 02:43:05;;;;;;;8.40;6.03;;;;;;;14.56;100.00;98888.31;5032218;28;20245;-56
2022/10/12 02:45:33;;;;;;;9.68;7.20;;;;;;;14.48;100.00;98887.25;5032139;28;20217;-56
2022/10/12 02:47:59;;;;;;;13.10;7.30;;;;;;;14.27;100.00;98878.47;5031841;28;20167;-56
2022/10/12 02:50:26;;;;;;;10.10;7.05;;;;;;;14.15;100.00;98877.59;5032064;28;20550;-56
2022/10/12 02:52:52;;;;;;;9.77;6.68;;;;;;;14.03;100.00;98877.69;5031746;28;20179;-56
2022/10/12 02:55:17;;;;;;;10.27;6.97;;;;;;;14.03;100.00;98878.53;5031740;28;20182;-57
2022/10/12 02:57:43;;;;;;;8.20;6.97;;;;;;;14.08;100.00;98892.03;5032855;28;20265;-57
2022/10/12 03:00:09;;;;;;;9.90;8.05;;;;;;;14.27;100.00;98886.25;5035750;28;20178;-56
2022/10/12 03:02:35;;;;;;;10.80;8.30;;;;;;;14.44;100.00;98885.81;5035711;28;20257;-56
2022/10/12 03:05:00;;;;;;;11.13;8.55;;;;;;;14.43;100.00;98884.16;5035792;28;20524;-57
2022/10/12 03:07:26;;;;;;;11.68;9.13;;;;;;;14.54;100.00;98894.59;5035764;28;20541;-56
2022/10/12 03:09:52;;;;;;;10.20;8.20;;;;;;;14.55;100.00;98897.09;5035682;28;20248;-56
2022/10/12 03:12:17;;;;;;;10.48;8.15;;;;;;;14.69;100.00;98896.84;5035630;28;20189;-56
2022/10/12 03:14:43;;;;;;;11.63;8.38;;;;;;;14.62;100.00;98892.22;5035540;28;20667;-56
2022/10/12 03:17:08;;;;;;;10.13;8.82;;;;;;;14.59;100.00;98900.28;5035585;28;20659;-57
2022/10/12 03:19:34;;;;;;;13.40;9.85;;;;;;;14.52;100.00;98904.31;5035502;28;20228;-57
2022/10/12 03:21:59;;;;;;;12.27;10.15;;;;;;;14.37;100.00;98903.69;5035687;28;20565;-57
2022/10/12 03:24:24;;;;;;;15.00;10.00;;;;;;;14.36;100.00;98898.59;5035654;28;20173;-57
2022/10/12 03:26:50;;;;;;;12.55;9.90;;;;;;;14.47;100.00;98899.41;5035380;28;20171;-57
2022/10/12 03:29:16;;;;;;;15.13;11.10;;;;;;;14.69;100.00;98899.44;5035193;28;20224;-56
2022/10/12 03:31:41;;;;;;;13.85;11.43;;;;;;;14.85;100.00;98906.88;5035542;28;20178;-57
2022/10/12 03:34:06;;;;;;;9.45;8.45;;;;;;;14.93;100.00;98902.75;5035200;28;20239;-56
2022/10/12 03:36:32;;;;;;;8.90;7.53;;;;;;;14.91;100.00;98911.63;5017453;28;20535;-57
2022/10/12 03:38:57;;;;;;;9.40;6.72;;;;;;;14.75;100.00;98908.56;5017417;28;20217;-57
2022/10/12 03:41:23;;;;;;;8.25;7.07;;;;;;;14.68;100.00;98907.38;5035339;28;20189;-56
2022/10/12 03:43:48;;;;;;;7.90;6.85;;;;;;;14.64;100.00;98901.56;5035144;28;20296;-57
2022/10/12 03:46:14;;;;;;;9.27;5.70;;;;;;;14.75;100.00;98892.94;5035013;28;20183;-57
2022/10/12 03:48:39;;;;;;;9.05;5.30;;;;;;;14.85;100.00;98904.28;5034927;28;20251;-56
2022/10/12 03:51:05;;;;;;;8.70;5.65;;;;;;;14.80;100.00;98903.81;5034881;28;20176;-56
2022/10/12 03:53:31;;;;;;;5.97;5.38;;;;;;;14.58;100.00;98893.41;5034869;28;20213;-56
2022/10/12 03:55:56;;;;;;;10.15;5.95;;;;;;;14.43;100.00;98894.56;5035157;28;20189;-56
2022/10/12 03:58:22;;;;;;;7.47;5.55;;;;;;;14.26;100.00;98895.88;5035048;28;20166;-56
2022/10/12 04:00:52;;;;;;;5.88;5.35;;;;;;;14.23;100.00;98892.66;5016973;28;20256;-57
2022/10/12 04:03:17;;;;;;;13.40;6.85;;;;;;;14.42;100.00;98901.56;5034687;28;20177;-56
2022/10/12 04:05:42;;;;;;;8.02;4.90;;;;;;;14.51;100.00;98900.00;5034613;28;20171;-56
2022/10/12 04:08:08;;;;;;;5.80;4.78;;;;;;;14.34;100.00;98897.91;5034474;28;20207;-56
2022/10/12 04:10:33;;;;;;;4.55;3.92;;;;;;;14.22;100.00;98899.63;5034616;28;20174;-56
2022/10/12 04:12:59;;;;;;;4.43;3.95;;;;;;;14.29;100.00;98894.81;5034347;28;20205;-56
2022/10/12 04:15:24;;;;;;;4.78;3.78;;;;;;;14.18;100.00;98892.16;5034510;28;20714;-57
2022/10/12 04:17:50;;;;;;;7.75;4.65;;;;;;;14.02;100.00;98892.47;5034462;28;20220;-56
2022/10/12 04:20:15;;;;;;;6.93;5.00;;;;;;;13.86;100.00;98891.09;5034719;28;20174;-57
2022/10/12 04:22:41;;;;;;;5.93;5.32;;;;;;;13.83;100.00;98888.75;5034355;28;20564;-57
2022/10/12 04:25:08;;;;;;;7.93;5.78;;;;;;;13.97;100.00;98894.59;5034533;28;20182;-56
2022/10/12 04:27:34;;;;;;;10.80;5.85;;;;;;;14.19;100.00;98889.47;5034286;28;20686;-57
2022/10/12 04:29:59;;;;;;;6.28;5.38;;;;;;;14.18;100.00;98895.56;5034502;28;20186;-57
2022/10/12 04:32:25;;;;;;;8.07;6.25;;;;;;;14.04;100.00;98900.16;5034146;28;20174;-56
2022/10/12 04:34:51;;;;;;;7.93;6.32;;;;;;;14.11;100.00;98896.16;5034045;28;20210;-57
2022/10/12 04:37:16;;;;;;;10.00;7.05;;;;;;;14.07;100.00;98895.56;5034360;28;20232;-57
2022/10/12 04:39:42;;;;;;;7.03;5.82;;;;;;;14.02;100.00;98891.63;5034298;28;20261;-57
2022/10/12 04:42:07;;;;;;;9.05;6.05;;;;;;;14.09;100.00;98905.84;5034190;28;20640;-56
2022/10/12 04:44:33;;;;;;;7.10;6.40;;;;;;;14.01;100.00;98900.38;5034073;28;20718;-56
2022/10/12 04:46:59;;;;;;;8.32;6.22;;;;;;;14.08;100.00;98901.59;5016106;28;20660;-57
2022/10/12 04:49:25;;;;;;;8.50;5.65;;;;;;;14.07;100.00;98905.13;5033716;28;20181;-57
2022/10/12 04:51:50;;;;;;;7.45;5.60;;;;;;;14.10;100.00;98899.69;5033687;28;20166;-56
2022/10/12 04:54:16;;;;;;;7.22;5.82;;;;;;;14.01;100.00;98905.59;5033684;28;20273;-57
2022/10/12 04:56:41;;;;;;;6.65;5.47;;;;;;;13.86;100.00;98909.31;5033725;28;20171;-57
2022/10/12 04:59:07;;;;;;;7.45;5.53;;;;;;;13.98;100.00;98911.00;5033672;28;20652;-57
2022/10/12 05:01:32;;;;;;;9.32;5.90;;;;;;;14.00;100.00;98922.97;5033640;28;20177;-57
2022/10/12 05:03:59;;;;;;;7.47;5.43;;;;;;;14.10;100.00;98923.09;5015838;28;20205;-57
2022/10/12 05:06:24;;;;;;;5.97;5.43;;;;;;;14.15;100.00;98918.38;5015783;28;20181;-57
2022/10/12 05:08:49;;;;;;;7.15;5.95;;;;;;;14.23;100.00;98927.31;5033999;28;20175;-57
2022/10/12 05:11:15;;;;;;;7.60;6.65;;;;;;;14.19;100.00;98922.47;5033706;28;20185;-57
2022/10/12 05:13:40;;;;;;;8.77;6.57;;;;;;;14.14;100.00;98928.00;5015503;28;20187;-57
2022/10/12 05:16:06;;;;;;;10.95;6.47;;;;;;;14.22;100.00;98924.81;5033541;28;20566;-57
2022/10/12 05:18:31;;;;;;;6.95;6.22;;;;;;;14.14;100.00;98932.34;5033871;28;20176;-57
2022/10/12 05:20:56;;;;;;;7.20;6.13;;;;;;;14.28;100.00;98932.19;5032647;28;20173;-58
2022/10/12 05:23:22;;;;;;;7.82;6.00;;;;;;;14.41;100.00;98931.13;5033289;28;20182;-57
2022/10/12 05:25:47;;;;;;;9.00;7.10;;;;;;;14.47;100.00;98930.66;5033229;28;20253;-57
2022/10/12 05:28:13;;;;;;;12.70;6.95;;;;;;;14.48;100.00;98944.53;5033438;28;20562;-57
2022/10/12 05:30:38;;;;;;;10.05;7.20;;;;;;;14.51;100.00;98939.06;5033420;28;20308;-57
2022/10/12 05:33:04;;;;;;;12.05;7.55;;;;;;;14.43;100.00;98944.88;5033577;28;20193;-57
2022/10/12 05:35:30;;;;;;;10.18;7.50;;;;;;;14.51;100.00;98945.13;5015207;28;20608;-57
2022/10/12 05:37:56;;;;;;;11.57;7.70;;;;;;;14.49;100.00;98954.84;5032615;28;20268;-57
2022/10/12 05:40:21;;;;;;;10.35;6.93;;;;;;;14.63;100.00;98948.59;5015621;28;20174;-57
2022/10/12 05:42:47;;;;;;;12.35;7.82;;;;;;;14.76;100.00;98952.72;5032898;28;20232;-58
2022/10/12 05:45:12;;;;;;;10.02;7.80;;;;;;;14.84;100.00;98955.59;5033064;28;20733;-57
2022/10/12 05:47:39;;;;;;;12.88;8.10;;;;;;;14.82;100.00;98961.84;5033017;28;20174;-57
2022/10/12 05:50:05;;;;;;;13.60;8.45;;;;;;;14.85;100.00;98961.59;5033024;28;20204;-57
2022/10/12 05:52:30;;;;;;;13.13;8.23;;;;;;;14.84;100.00;98960.78;5032702;28;20665;-57
2022/10/12 05:54:55;;;;;;;14.00;8.38;;;;;;;14.90;100.00;98975.13;5032586;28;20190;-57
2022/10/12 05:57:21;;;;;;;16.38;11.00;;;;;;;14.82;100.00;98969.69;5032650;28;20176;-57
2022/10/12 05:59:46;;;;;;;15.65;11.13;;;;;;;14.91;100.00;98974.16;5032543;28;20640;-57
2022/10/12 06:02:13;;;;;;;21.52;11.75;;;;;;;14.96;100.00;98975.47;5032831;28;20185;-57
2022/10/12 06:04:39;;;;;;;19.08;14.85;;;;;;;15.00;100.00;98981.28;5032822;28;20175;-57
2022/10/12 06:07:04;;;;;;;26.02;16.00;;;;;;;14.98;100.00;98986.59;5014729;28;20189;-57
2022/10/12 06:09:30;;;;;;;19.48;14.30;;;;;;;15.03;100.00;98971.44;5032430;28;20174;-58
2022/10/12 06:11:55;;;;;;;20.85;15.23;;;;;;;15.03;100.00;98981.88;5032836;28;20182;-58
2022/10/12 06:14:20;;;;;;;16.05;13.13;;;;;;;15.05;100.00;98979.97;5032533;28;20190;-58
2022/10/12 06:16:46;;;;;;;18.88;13.48;;;;;;;15.11;100.00;98987.31;5032312;28;20648;-57
2022/10/12 06:19:11;;;;;;;18.38;12.23;;;;;;;15.07;100.00;98992.88;5032591;28;20173;-58
2022/10/12 06:21:37;;;;;;;15.63;11.38;;;;;;;15.06;100.00;98996.44;5032261;28;20173;-58
2022/10/12 06:24:03;;;;;;;12.95;9.77;;;;;;;15.11;100.00;98989.91;5014311;28;20288;-58
2022/10/12 06:26:28;;;;;;;12.95;9.90;;;;;;;15.18;100.00;98998.94;5032213;28;20205;-57
2022/10/12 06:28:53;;;;;;;14.57;10.75;;;;;;;15.15;100.00;99006.16;5014432;28;20182;-55
2022/10/12 06:31:19;;;;;;;14.38;11.57;;;;;;;15.19;100.00;99008.41;5032139;28;20678;-54
2022/10/12 06:33:45;;;;;;;21.00;13.40;;;;;;;15.22;100.00;99010.75;5031260;28;20233;-55
2022/10/12 06:36:10;;;;;;;18.25;12.63;;;;;;;15.29;100.00;99006.72;5031832;28;20208;-55
2022/10/12 06:38:35;;;;;;;20.25;14.85;;;;;;;15.23;100.00;99009.81;5031981;28;20193;-55
2022/10/12 06:41:01;;;;;;;19.98;15.00;;;;;;;15.19;100.00;99010.19;5032222;28;20663;-56
2022/10/12 06:43:26;;;;;;;18.70;13.45;;;;;;;15.32;100.00;99011.75;5031932;28;20173;-57
2022/10/12 06:45:52;;;;;;;13.43;11.13;;;;;;;15.37;100.00;99017.44;5032210;28;20193;-57
2022/10/12 06:48:17;;;;;;;12.80;11.45;;;;;;;15.30;100.00;99018.00;5032337;28;20174;-57
2022/10/12 06:50:43;;;;;;;15.77;10.52;;;;;;;15.29;100.00;99018.97;5032142;28;20673;-58
2022/10/12 06:53:08;;;;;;;12.82;9.88;;;;;;;15.27;100.00;99021.66;5031811;28;20640;-57
2022/10/12 06:55:34;;;;;;;11.10;7.35;;;;;;;15.34;100.00;99027.28;5031893;28;20550;-58
2022/10/12 06:57:59;;;;;;;10.15;7.57;;;;;;;15.42;100.00;99022.28;5032417;28;20174;-58
2022/10/12 07:00:24;;;;;;;15.15;6.70;;;;;;;15.50;100.00;99032.94;5032007;28;20167;-58
2022/10/12 07:02:51;;;;;;;8.57;6.80;;;;;;;15.47;100.00;99034.03;5032050;28;20176;-57
2022/10/12 07:05:18;;;;;;;6.28;5.35;;;;;;;15.50;100.00;99032.94;5031770;28;20559;-58
2022/10/12 07:07:43;;;;;;;12.70;7.22;;;;;;;15.58;100.00;99039.22;5031769;28;20220;-57
2022/10/12 07:10:09;;;;;;;9.00;7.38;;;;;;;15.58;100.00;99038.41;5031740;28;20257;-58
2022/10/12 07:12:37;;;;;;;8.68;7.03;;;;;;;15.60;100.00;99039.09;5031683;28;20564;-58
2022/10/12 07:15:06;;;;;;;11.60;7.78;;;;;;;15.62;100.00;99038.03;5032142;28;20683;-58
2022/10/12 07:17:32;;;;;;;10.88;6.78;;;;;;;15.66;100.00;99038.63;5032264;28;20206;-57
2022/10/12 07:19:58;;;;;;;12.38;7.63;;;;;;;15.68;100.00;99036.72;5031680;28;20719;-57
2022/10/12 07:22:23;;;;;;;7.38;6.68;;;;;;;15.77;100.00;99036.84;5031962;28;20229;-58
2022/10/12 07:24:48;;;;;;;8.02;7.25;;;;;;;15.84;100.00;99039.75;5031720;28;20166;-57
2022/10/12 07:27:14;;;;;;;15.68;7.00;;;;;;;15.87;100.00;99026.47;5031590;28;20166;-57
2022/10/12 07:29:39;;;;;;;8.90;4.70;;;;;;;15.94;100.00;99035.47;5013844;28;20189;-57
2022/10/12 07:32:06;;;;;;;5.95;4.45;;;;;;;15.96;100.00;99038.78;5032123;28;20221;-59
2022/10/12 07:34:32;;;;;;;7.28;3.92;;;;;;;16.01;100.00;99042.69;5031179;28;20713;-58
2022/10/12 07:36:57;;;;;;;6.03;4.75;;;;;;;16.00;100.00;99038.44;5031480;28;20170;-57
2022/10/12 07:39:23;;;;;;;13.40;5.22;;;;;;;15.96;100.00;99041.38;5031760;28;20544;-57
2022/10/12 07:41:50;;;;;;;4.97;4.50;;;;;;;15.95;100.00;99044.94;5032525;28;20202;-57
2022/10/12 07:44:16;;;;;;;9.63;5.18;;;;;;;15.97;100.00;99037.84;5015563;28;20226;-58
2022/10/12 07:46:41;;;;;;;7.18;4.85;;;;;;;16.01;100.00;99047.91;5035089;28;20627;-57
2022/10/12 07:49:07;;;;;;;5.90;4.40;;;;;;;15.96;100.00;99038.78;5035272;28;20170;-57
2022/10/12 07:51:33;;;;;;;8.82;4.85;;;;;;;15.95;100.00;99039.72;5035346;28;20184;-55
2022/10/12 07:53:59;;;;;;;5.70;3.78;;;;;;;15.96;100.00;99036.16;5035199;28;20197;-55
2022/10/12 07:56:25;;;;;;;6.70;4.35;;;;;;;16.12;98.91;99037.44;5034944;28;20178;-58
2022/10/12 07:58:53;;;;;;;5.05;3.55;;;;;;;16.09;99.42;99032.44;5035155;28;20257;-58
2022/10/12 08:01:21;;;;;;;9.00;3.92;;;;;;;16.00;98.86;99032.38;5035075;28;20275;-57
2022/10/12 08:03:47;;;;;;;5.45;3.70;;;;;;;15.94;99.56;99030.25;5034827;28;20731;-58
2022/10/12 08:06:15;;;;;;;9.77;3.97;;;;;;;15.97;99.84;99027.41;5034768;28;20236;-58
2022/10/12 08:08:41;;;;;;;8.48;4.10;;;;;;;15.98;99.49;99029.88;5034714;28;20174;-58
2022/10/12 08:11:08;;;;;;;4.80;3.95;;;;;;;16.03;99.48;99032.94;5016953;28;20174;-58
2022/10/12 08:13:34;;;;;;;6.22;3.90;;;;;;;16.14;98.89;99034.69;5034812;28;20220;-58
2022/10/12 08:16:02;;;;;;;4.60;3.90;;;;;;;16.20;98.43;99032.41;5016784;28;20682;-57
2022/10/12 08:18:27;;;;;;;6.57;3.50;;;;;;;16.30;98.55;99035.09;5034814;28;20201;-57
2022/10/12 08:20:53;;;;;;;5.47;3.38;;;;;;;16.41;97.29;99032.47;5034512;28;20647;-58
2022/10/12 08:23:18;;;;;;;7.03;3.25;;;;;;;16.37;95.55;99033.63;5016741;28;20174;-57
2022/10/12 08:25:55;;;;;;;8.77;4.00;;;;;;;16.45;94.52;99039.13;5034430;28;20601;-58
2022/10/12 08:28:21;;;;;;;4.80;4.05;;;;;;;16.46;94.39;99038.16;5034564;28;20561;-58
2022/10/12 08:30:47;;;;;;;6.13;3.65;;;;;;;16.39;94.94;99039.63;5034305;28;20184;-57
2022/10/12 08:33:13;;;;;;;6.93;3.60;;;;;;;16.29;94.69;99030.84;5034756;28;20197;-56
2022/10/12 08:35:40;;;;;;;6.90;3.80;;;;;;;16.40;94.01;99031.66;5034115;28;20710;-56
2022/10/12 08:38:13;;;;;;;8.48;4.05;;;;;;;16.48;94.10;99039.69;5034150;28;20170;-56
2022/10/12 08:41:05;;;;;;;7.38;4.05;;;;;;;16.49;93.58;99040.53;5034964;28;20200;-56
2022/10/12 08:43:49;;;;;;;8.95;4.80;;;;;;;16.62;93.88;99039.34;5034556;28;20173;-56
2022/10/12 08:46:19;;;;;;;9.52;4.28;;;;;;;16.75;93.65;99050.47;5034039;28;20208;-56
2022/10/12 08:48:51;;;;;;;5.15;4.55;;;;;;;16.82;93.73;99042.94;5034158;28;20174;-57
2022/10/12 08:51:23;;;;;;;7.75;4.75;;;;;;;16.81;93.07;99042.13;5034234;28;20155;-57
2022/10/12 08:54:04;;;;;;;10.63;4.47;;;;;;;16.86;91.47;99047.75;5016800;28;20182;-56
2022/10/12 08:56:29;;;;;;;6.10;3.83;;;;;;;16.84;91.53;99054.91;5033227;28;20249;-56
2022/10/12 08:58:55;;;;;;;7.43;4.40;;;;;;;16.95;91.88;99043.53;5034095;28;20194;-56
2022/10/12 09:01:20;;;;;;;7.68;4.93;;;;;;;17.02;92.04;99048.13;5016038;28;20177;-56
2022/10/12 09:04:12;;;;;;;7.13;5.13;;;;;;;17.13;90.95;99048.06;5034248;28;20247;-56
2022/10/12 09:06:56;;;;;;;10.80;4.75;;;;;;;17.05;90.53;99044.44;5003404;28;20223;-56
2022/10/12 09:09:45;;;;;;;8.50;4.88;;;;;;;17.10;89.98;99042.25;5033951;28;20245;-56
2022/10/12 09:12:24;;;;;;;7.78;5.13;;;;;;;17.18;88.32;99047.66;5033498;28;20710;-56
2022/10/12 09:14:55;;;;;;;9.82;5.70;;;;;;;17.05;88.95;99047.06;5033467;28;20190;-56
2022/10/12 09:17:25;;;;;;;11.23;5.63;;;;;;;17.04;89.23;99048.03;5033506;28;20209;-56
2022/10/12 09:20:01;;;;;;;9.90;5.70;;;;;;;17.18;89.95;99060.75;5033761;28;20158;-56
2022/10/12 09:22:28;;;;;;;8.70;6.03;;;;;;;17.33;88.65;99054.22;5033668;28;20248;-56
2022/10/12 09:24:55;;;;;;;13.57;6.80;;;;;;;17.21;89.05;99056.06;5033582;28;20169;-56
2022/10/12 09:27:21;;;;;;;8.70;6.30;;;;;;;17.25;89.48;99048.81;5015928;28;20178;-56
2022/10/12 09:29:50;;;;;;;9.68;7.00;;;;;;;17.34;89.53;99054.09;5033241;28;20223;-56
2022/10/12 09:32:53;;;;;;;7.75;6.60;;;;;;;17.44;89.78;99054.97;5033432;28;20190;-56
2022/10/12 09:35:19;;;;;;;11.95;5.93;;;;;;;17.55;88.57;99054.88;4992194;28;20229;-56
2022/10/12 09:37:51;;;;;;;9.10;5.70;;;;;;;17.52;86.55;99046.47;5033025;28;20697;-56
2022/10/12 09:40:24;;;;;;;11.18;6.13;;;;;;;17.61;86.42;99049.09;5015307;28;20173;-56
2022/10/12 09:42:50;;;;;;;13.70;7.22;;;;;;;17.66;85.95;99052.16;5033249;28;20162;-56
2022/10/12 09:45:18;;;;;;;11.25;6.80;;;;;;;17.80;84.55;99048.34;5032940;28;20208;-56
2022/10/12 09:48:20;;;;;;;11.32;7.82;;;;;;;17.92;83.93;99050.72;5015125;28;20550;-56
2022/10/12 09:50:51;;;;;;;12.80;7.72;;;;;;;17.75;82.99;99045.28;5032842;28;20192;-56
2022/10/12 09:53:26;;;;;;;13.25;8.82;;;;;;;17.75;83.43;99042.66;5033028;28;20186;-56
2022/10/12 09:56:04;;;;;;;14.85;9.38;;;;;;;17.81;84.15;99045.59;5033006;28;20165;-56
2022/10/12 09:58:48;;;;;;;13.07;8.98;;;;;;;17.95;84.47;99047.00;5032988;28;20180;-56
2022/10/12 10:01:20;;;;;;;15.43;8.23;;;;;;;18.04;83.76;99054.03;5033191;28;20168;-56
2022/10/12 10:03:47;;;;;;;9.48;6.50;;;;;;;17.92;80.62;99047.25;5032855;28;20182;-56
2022/10/12 10:06:14;;;;;;;9.70;6.90;;;;;;;17.85;82.21;99036.47;5032621;28;20244;-56
2022/10/12 10:08:44;;;;;;;9.73;7.00;;;;;;;17.98;79.69;99037.09;5032797;28;20173;-56
2022/10/12 10:11:31;;;;;;;8.95;6.70;;;;;;;17.95;78.38;99037.34;5032691;28;20240;-56
2022/10/12 10:13:59;;;;;;;7.70;6.18;;;;;;;17.79;78.17;99030.97;5032627;28;20197;-56
2022/10/12 10:16:28;;;;;;;7.30;5.43;;;;;;;17.82;76.52;99030.69;5032373;28;20184;-56
2022/10/12 10:18:53;;;;;;;8.73;5.22;;;;;;;17.99;75.13;99037.88;5032615;28;20212;-56
2022/10/12 10:21:29;;;;;;;7.85;4.65;;;;;;;18.15;74.07;99038.19;5033100;28;20213;-57
2022/10/12 10:24:06;;;;;;;5.03;4.20;;;;;;;18.43;72.47;99035.59;5014999;28;20165;-57
2022/10/12 10:26:53;;;;;;;5.70;4.03;;;;;;;18.69;71.52;99034.06;5032497;28;20300;-57
2022/10/12 10:29:32;;;;;;;7.88;4.18;;;;;;;18.65;69.06;99031.88;5032171;28;20201;-57
2022/10/12 10:32:27;;;;;;;8.75;4.25;;;;;;;18.83;69.00;99027.56;5032448;28;20624;-57
2022/10/12 10:35:18;;;;;;;4.72;3.92;;;;;;;19.07;68.77;99020.03;5014268;28;20422;-57
2022/10/12 10:37:48;;;;;;;4.72;3.63;;;;;;;19.20;68.86;99023.16;5032695;28;20192;-57
2022/10/12 10:40:20;;;;;;;4.57;3.40;;;;;;;19.23;66.57;99017.66;5032074;28;20176;-57
2022/10/12 10:42:50;;;;;;;6.95;3.30;;;;;;;19.15;67.09;99015.72;5032008;28;20232;-57
2022/10/12 10:45:28;;;;;;;8.88;3.03;;;;;;;19.16;66.26;99006.03;5032598;28;20162;-57
2022/10/12 10:48:00;;;;;;;5.47;2.53;;;;;;;19.18;64.45;99004.13;5030713;28;20181;-57
2022/10/12 10:50:35;;;;;;;4.38;3.10;;;;;;;18.93;65.90;99004.75;5032208;28;20196;-57
2022/10/12 10:53:26;;;;;;;5.03;3.08;;;;;;;18.95;66.18;99008.06;5032165;28;20247;-57
2022/10/12 10:55:58;;;;;;;7.20;2.72;;;;;;;19.23;64.10;98997.47;5031726;28;20371;-57
2022/10/12 10:58:51;;;;;;;4.22;2.65;;;;;;;19.18;62.91;98998.88;5032105;28;20182;-57
2022/10/12 11:01:38;;;;;;;4.70;2.97;;;;;;;19.24;62.57;98995.69;5023745;28;20193;-56
2022/10/12 11:04:16;;;;;;;5.80;3.10;;;;;;;19.58;62.46;98988.91;5032114;28;20169;-57
2022/10/12 11:06:46;;;;;;;4.68;2.75;;;;;;;19.95;60.98;98989.59;5014135;28;20169;-57
2022/10/12 11:09:18;;;;;;;4.50;2.70;;;;;;;20.10;60.94;98983.72;5032097;28;20623;-57
2022/10/12 11:11:50;;;;;;;5.05;2.42;;;;;;;20.17;59.61;98978.69;5031717;28;20681;-57
2022/10/12 11:14:24;;;;;;;3.90;2.83;;;;;;;20.50;58.80;98977.94;5031601;28;20267;-57
2022/10/12 11:16:55;;;;;;;4.47;2.78;;;;;;;20.71;56.52;98978.44;5014948;28;20165;-57
2022/10/12 11:19:59;;;;;;;5.95;2.58;;;;;;;20.82;56.68;98975.56;5033821;28;20166;-57
2022/10/12 11:22:47;;;;;;;2.53;2.33;;;;;;;20.78;56.69;98969.78;4978286;28;20201;-57
2022/10/12 11:25:40;;;;;;;4.18;3.00;;;;;;;20.67;57.10;98966.56;5035881;28;20181;-57
2022/10/12 11:28:07;;;;;;;4.68;2.95;;;;;;;20.71;58.42;98966.13;5025514;28;20619;-57
2022/10/12 11:30:43;;;;;;;4.90;2.80;;;;;;;20.74;58.16;98971.06;5035466;28;20181;-57
2022/10/12 11:33:18;;;;;;;5.45;3.35;;;;;;;20.89;58.15;98963.44;5035658;28;20162;-57